Overview Statistics Trail Chart Weather Telemetry Raw packets
 

This is the latest recevied weather packets stored in our database for station/object KO4ZGL-13. If no packets are shown the sender has not sent any weather packets the latest 10 day(s).

<< 54 55 56 57 58 59 60 >>
Time Temp. Humidity Pressure Rain* Wind** Luminosity Snow
1788282956 33.89° C 67% 1019 hPa 0 mm - 654 W/m² -
1788282661 34.44° C 66% 1019.3 hPa 0 mm - 677 W/m² -
1788282349 33.89° C 67% 1019 hPa 0 mm - 684 W/m² -
1788282044 34.44° C 64% 1019.3 hPa 0 mm - 701 W/m² -
1788281738 34.44° C 68% 1019.3 hPa 0 mm - 701 W/m² -
1788281434 33.89° C 69% 1019.2 hPa 0 mm - 686 W/m² -
1788281129 33.89° C 71% 1019.4 hPa 0 mm - 677 W/m² -
1788280824 33.33° C 71% 1019.5 hPa 0 mm - 706 W/m² -
1788280520 32.22° C 76% 1019.7 hPa 0 mm - 715 W/m² -
1788280219 32.78° C 75% 1019.6 hPa 0 mm - 701 W/m² -
1788279914 34.44° C 73% 1019.7 hPa 0 mm - 202 W/m² -
1788279613 34.44° C 71% 1019.8 hPa 0 mm - 222 W/m² -
1788279313 33.89° C 69% 1019.8 hPa 0 mm - 789 W/m² -
1788279013 33.33° C 72% 1019.7 hPa 0 mm - 790 W/m² -
1788278709 33.33° C 69% 1019.7 hPa 0 mm - 768 W/m² -
1788278408 33.33° C 70% 1020.1 hPa 0 mm - 757 W/m² -
1788278102 33.33° C 72% 1019.7 hPa 0 mm - 764 W/m² -
1788277799 32.78° C 72% 1019.9 hPa 0 mm - 780 W/m² -
1788277497 32.78° C 74% 1020 hPa 0 mm - 800 W/m² -
1788277193 32.78° C 74% 1020.1 hPa 0 mm - 791 W/m² -
1788276888 32.78° C 77% 1019.9 hPa 0 mm - 809 W/m² -
1788276586 32.78° C 77% 1019.7 hPa 0 mm - 818 W/m² -
1788276281 32.78° C 79% 1020.1 hPa 0 mm - 845 W/m² -
1788275981 32.22° C 78% 1020.1 hPa 0 mm - 850 W/m² -
1788275676 31.67° C 79% 1020.1 hPa 0 mm - 838 W/m² -

* Rain latest hour (hover to see other rain measurements)
** Current wind speed in m/s (hover to see current wind gust speed)